sim
Sign-in with your pilot id or email,
or register
Callsign
Passwort

Schedule Details

Flight Number: DLH2204 (1)
Departure: Munich Airport (EDDM) at 17:00
Arrival: Cologne Bonn Airport (EDDK) at 18:05
Route: Lufthansa Passenger Schedule. Enter filed route here before submitting Pirep.

Weather Information
Getting current METAR information for EDDM 222020Z VRB02KT CAVOK 16/14 Q1010 NOSIG
Getting current METAR information for EDDK 222020Z 17003KT CAVOK 13/09 Q1007 NOSIG

Schedule Frequency

Route Map